Biotrans — JWPN — position and weather

sailwx.info

Track history (hours):
 
Tides and Currents Weather Stations Pressure Air Temp Water Temp Dewpoint Dewpoint Depression Visibility Wind Speed Wind Dir Waves Ship Positions

Biotrans

Last reported at 2014-Jul-25 16:31 UTC. Time now 2014-Jul-26 17:13 UTC.
Position N 70°43' E 023°32'.

Length 55 m; draft 5.5 m.

Type: Cargo ship. MMSI: 259260000.

Date/timePositionNaut miles runAvg speedWind from/ knotsBaromVisibWave heightAir tempDewpointWater temp
2014-Jul-25 16:31N 70°43' E 023°32'  
2014-Jul-21 21:20N 64°47' E 011°05'6 8.4
2014-Jul-21 20:34N 64°52' E 011°16'2 8.6
2014-Jul-21 20:18N 64°53' E 011°19'6 8.3
2014-Jul-21 19:33N 64°57' E 011°31'8 8.3
2014-Jul-21 18:33N 65°03' E 011°44'55 7.8
2014-Jul-21 11:33N 65°56' E 012°18'4 1.9
2014-Jul-21 09:33N 65°59' E 012°26'23 5.7
2014-Jul-21 05:27N 66°19' E 012°56'11 8.6
2014-Jul-21 04:10N 66°30' E 012°59'7 7.8
2014-Jul-21 03:13N 66°37' E 013°04'33 8.6
2014-Jul-20 23:24N 67°09' E 013°23'17 9.0
2014-Jul-20 21:30N 67°25' E 013°39'27 9.1
2014-Jul-20 18:30N 67°47' E 014°21'  
Track history (hours):
 
Tides and Currents Weather Stations Pressure Air Temp Water Temp Dewpoint Dewpoint Depression Visibility Wind Speed Wind Dir Waves Ship Positions

Biotrans

Last reported at 2014-Jul-25 16:31 UTC. Time now 2014-Jul-26 17:13 UTC.
Position N 70°43' E 023°32'.

Length 55 m; draft 5.5 m.

Type: Cargo ship. MMSI: 259260000.

Date/timePositionNaut miles runAvg speedWind from/ knotsBaromVisibWave heightAir tempDewpointWater temp
2014-Jul-25 16:31N 70°43' E 023°32'  
2014-Jul-21 21:20N 64°47' E 011°05'6 8.4
2014-Jul-21 20:34N 64°52' E 011°16'2 8.6
2014-Jul-21 20:18N 64°53' E 011°19'6 8.3
2014-Jul-21 19:33N 64°57' E 011°31'8 8.3
2014-Jul-21 18:33N 65°03' E 011°44'55 7.8
2014-Jul-21 11:33N 65°56' E 012°18'4 1.9
2014-Jul-21 09:33N 65°59' E 012°26'23 5.7
2014-Jul-21 05:27N 66°19' E 012°56'11 8.6
2014-Jul-21 04:10N 66°30' E 012°59'7 7.8
2014-Jul-21 03:13N 66°37' E 013°04'33 8.6
2014-Jul-20 23:24N 67°09' E 013°23'17 9.0
2014-Jul-20 21:30N 67°25' E 013°39'27 9.1
2014-Jul-20 18:30N 67°47' E 014°21'  

Dump ship's entire track history